sensor_id;sensor_type;location;lat;lon;timestamp;P1;durP1;ratioP1;P2;durP2;ratioP2
34072;SDS011;20346;52.702;16.886;2022-07-29T00:00:56;5.72;;;2.10;;
34072;SDS011;20346;52.702;16.886;2022-07-29T00:03:22;8.53;;;2.47;;
34072;SDS011;20346;52.702;16.886;2022-07-29T00:05:48;3.83;;;1.90;;
34072;SDS011;20346;52.702;16.886;2022-07-29T00:08:14;3.83;;;2.40;;
34072;SDS011;20346;52.702;16.886;2022-07-29T00:10:41;5.53;;;2.43;;
34072;SDS011;20346;52.702;16.886;2022-07-29T00:15:34;7.83;;;2.55;;
34072;SDS011;20346;52.702;16.886;2022-07-29T00:18:00;3.67;;;2.17;;
34072;SDS011;20346;52.702;16.886;2022-07-29T00:20:26;7.73;;;2.30;;
34072;SDS011;20346;52.702;16.886;2022-07-29T00:25:18;6.77;;;2.03;;
34072;SDS011;20346;52.702;16.886;2022-07-29T00:30:11;4.90;;;1.90;;
34072;SDS011;20346;52.702;16.886;2022-07-29T00:32:37;5.62;;;2.08;;
34072;SDS011;20346;52.702;16.886;2022-07-29T00:35:04;5.97;;;2.23;;
34072;SDS011;20346;52.702;16.886;2022-07-29T00:37:50;4.40;;;1.98;;
34072;SDS011;20346;52.702;16.886;2022-07-29T00:40:16;7.35;;;2.22;;
34072;SDS011;20346;52.702;16.886;2022-07-29T00:42:46;4.57;;;2.17;;
34072;SDS011;20346;52.702;16.886;2022-07-29T00:45:14;3.95;;;2.15;;
34072;SDS011;20346;52.702;16.886;2022-07-29T00:47:42;5.37;;;2.05;;
34072;SDS011;20346;52.702;16.886;2022-07-29T00:52:37;5.20;;;1.70;;
34072;SDS011;20346;52.702;16.886;2022-07-29T00:55:07;5.03;;;1.90;;
34072;SDS011;20346;52.702;16.886;2022-07-29T00:57:37;10.20;;;2.95;;
34072;SDS011;20346;52.702;16.886;2022-07-29T01:00:06;4.37;;;1.90;;
34072;SDS011;20346;52.702;16.886;2022-07-29T01:02:37;6.83;;;2.22;;
34072;SDS011;20346;52.702;16.886;2022-07-29T01:05:03;7.17;;;2.07;;
34072;SDS011;20346;52.702;16.886;2022-07-29T01:07:31;4.10;;;1.95;;
34072;SDS011;20346;52.702;16.886;2022-07-29T01:10:01;4.00;;;1.62;;
34072;SDS011;20346;52.702;16.886;2022-07-29T01:12:30;5.40;;;2.10;;
34072;SDS011;20346;52.702;16.886;2022-07-29T01:15:01;4.62;;;1.77;;
34072;SDS011;20346;52.702;16.886;2022-07-29T01:17:36;6.10;;;2.67;;
34072;SDS011;20346;52.702;16.886;2022-07-29T01:20:20;5.87;;;2.08;;
34072;SDS011;20346;52.702;16.886;2022-07-29T01:29:35;3.95;;;2.27;;
34072;SDS011;20346;52.702;16.886;2022-07-29T01:32:11;7.30;;;2.12;;
34072;SDS011;20346;52.702;16.886;2022-07-29T01:34:43;4.80;;;2.20;;
34072;SDS011;20346;52.702;16.886;2022-07-29T01:39:59;3.37;;;2.30;;
34072;SDS011;20346;52.702;16.886;2022-07-29T01:48:23;4.20;;;1.52;;
34072;SDS011;20346;52.702;16.886;2022-07-29T01:51:07;5.37;;;2.10;;
34072;SDS011;20346;52.702;16.886;2022-07-29T01:53:43;4.17;;;1.90;;
34072;SDS011;20346;52.702;16.886;2022-07-29T01:56:20;10.53;;;2.10;;
34072;SDS011;20346;52.702;16.886;2022-07-29T01:58:48;6.62;;;2.20;;
34072;SDS011;20346;52.702;16.886;2022-07-29T02:01:17;4.22;;;2.10;;
34072;SDS011;20346;52.702;16.886;2022-07-29T02:03:45;6.90;;;1.95;;
34072;SDS011;20346;52.702;16.886;2022-07-29T02:06:15;4.05;;;1.67;;
34072;SDS011;20346;52.702;16.886;2022-07-29T02:08:42;3.85;;;1.70;;
34072;SDS011;20346;52.702;16.886;2022-07-29T02:11:11;7.45;;;1.95;;
34072;SDS011;20346;52.702;16.886;2022-07-29T02:13:37;5.97;;;1.83;;
34072;SDS011;20346;52.702;16.886;2022-07-29T02:16:06;5.37;;;1.50;;
34072;SDS011;20346;52.702;16.886;2022-07-29T02:18:34;4.12;;;1.75;;
34072;SDS011;20346;52.702;16.886;2022-07-29T02:21:03;2.95;;;1.80;;
34072;SDS011;20346;52.702;16.886;2022-07-29T02:23:30;8.08;;;1.50;;
34072;SDS011;20346;52.702;16.886;2022-07-29T02:25:58;7.50;;;1.98;;
34072;SDS011;20346;52.702;16.886;2022-07-29T02:28:26;3.12;;;1.50;;
34072;SDS011;20346;52.702;16.886;2022-07-29T02:30:55;6.28;;;1.87;;
34072;SDS011;20346;52.702;16.886;2022-07-29T02:33:25;2.95;;;1.70;;
34072;SDS011;20346;52.702;16.886;2022-07-29T02:35:52;6.03;;;1.67;;
34072;SDS011;20346;52.702;16.886;2022-07-29T02:38:19;3.25;;;1.55;;
34072;SDS011;20346;52.702;16.886;2022-07-29T02:41:13;5.05;;;1.92;;
34072;SDS011;20346;52.702;16.886;2022-07-29T02:44:01;7.12;;;2.00;;
34072;SDS011;20346;52.702;16.886;2022-07-29T02:46:33;4.92;;;1.60;;
34072;SDS011;20346;52.702;16.886;2022-07-29T02:49:07;6.30;;;1.30;;
34072;SDS011;20346;52.702;16.886;2022-07-29T02:51:56;4.72;;;1.60;;
34072;SDS011;20346;52.702;16.886;2022-07-29T02:54:36;2.05;;;1.60;;
34072;SDS011;20346;52.702;16.886;2022-07-29T02:57:14;3.85;;;1.82;;
34072;SDS011;20346;52.702;16.886;2022-07-29T02:59:54;3.15;;;1.62;;
34072;SDS011;20346;52.702;16.886;2022-07-29T03:02:25;4.35;;;1.80;;
34072;SDS011;20346;52.702;16.886;2022-07-29T03:04:54;3.22;;;1.55;;
34072;SDS011;20346;52.702;16.886;2022-07-29T03:07:22;4.97;;;2.05;;
34072;SDS011;20346;52.702;16.886;2022-07-29T03:09:49;4.42;;;1.65;;
34072;SDS011;20346;52.702;16.886;2022-07-29T03:12:16;2.98;;;1.52;;
34072;SDS011;20346;52.702;16.886;2022-07-29T03:14:43;5.35;;;1.60;;
34072;SDS011;20346;52.702;16.886;2022-07-29T03:17:11;4.25;;;1.65;;
34072;SDS011;20346;52.702;16.886;2022-07-29T03:22:04;3.58;;;1.67;;
34072;SDS011;20346;52.702;16.886;2022-07-29T03:24:33;2.35;;;1.42;;
34072;SDS011;20346;52.702;16.886;2022-07-29T03:27:01;3.30;;;2.00;;
34072;SDS011;20346;52.702;16.886;2022-07-29T03:29:28;3.95;;;1.60;;
34072;SDS011;20346;52.702;16.886;2022-07-29T03:31:54;5.50;;;2.83;;
34072;SDS011;20346;52.702;16.886;2022-07-29T03:34:21;4.42;;;2.20;;
34072;SDS011;20346;52.702;16.886;2022-07-29T03:36:47;3.65;;;1.80;;
34072;SDS011;20346;52.702;16.886;2022-07-29T03:41:48;5.70;;;1.95;;
34072;SDS011;20346;52.702;16.886;2022-07-29T03:44:17;3.92;;;2.22;;
34072;SDS011;20346;52.702;16.886;2022-07-29T03:46:45;7.42;;;2.00;;
34072;SDS011;20346;52.702;16.886;2022-07-29T03:49:14;4.53;;;1.92;;
34072;SDS011;20346;52.702;16.886;2022-07-29T03:51:42;5.17;;;2.00;;
34072;SDS011;20346;52.702;16.886;2022-07-29T03:54:08;3.92;;;2.02;;
34072;SDS011;20346;52.702;16.886;2022-07-29T03:56:38;6.05;;;2.05;;
34072;SDS011;20346;52.702;16.886;2022-07-29T03:59:08;6.95;;;2.15;;
34072;SDS011;20346;52.702;16.886;2022-07-29T04:01:37;7.00;;;2.27;;
34072;SDS011;20346;52.702;16.886;2022-07-29T04:04:04;5.53;;;2.20;;
34072;SDS011;20346;52.702;16.886;2022-07-29T04:06:37;5.95;;;2.40;;
34072;SDS011;20346;52.702;16.886;2022-07-29T04:09:06;5.37;;;2.20;;
34072;SDS011;20346;52.702;16.886;2022-07-29T04:11:33;6.05;;;2.15;;
34072;SDS011;20346;52.702;16.886;2022-07-29T04:14:00;8.65;;;2.20;;
34072;SDS011;20346;52.702;16.886;2022-07-29T04:16:26;4.33;;;2.27;;
34072;SDS011;20346;52.702;16.886;2022-07-29T04:18:52;4.08;;;1.90;;
34072;SDS011;20346;52.702;16.886;2022-07-29T04:21:18;5.47;;;2.08;;
34072;SDS011;20346;52.702;16.886;2022-07-29T04:23:44;4.63;;;2.10;;
34072;SDS011;20346;52.702;16.886;2022-07-29T04:26:12;4.90;;;2.37;;
34072;SDS011;20346;52.702;16.886;2022-07-29T04:28:38;5.03;;;2.70;;
34072;SDS011;20346;52.702;16.886;2022-07-29T04:31:05;6.03;;;2.58;;
34072;SDS011;20346;52.702;16.886;2022-07-29T04:33:32;7.35;;;2.50;;
34072;SDS011;20346;52.702;16.886;2022-07-29T04:35:58;5.67;;;2.17;;
34072;SDS011;20346;52.702;16.886;2022-07-29T04:38:25;6.58;;;2.45;;
34072;SDS011;20346;52.702;16.886;2022-07-29T04:40:52;6.17;;;2.50;;
34072;SDS011;20346;52.702;16.886;2022-07-29T04:43:18;4.60;;;2.40;;
34072;SDS011;20346;52.702;16.886;2022-07-29T04:45:44;4.50;;;2.17;;
34072;SDS011;20346;52.702;16.886;2022-07-29T04:48:10;3.70;;;2.63;;
34072;SDS011;20346;52.702;16.886;2022-07-29T04:50:39;6.33;;;2.50;;
34072;SDS011;20346;52.702;16.886;2022-07-29T04:53:06;5.85;;;2.98;;
34072;SDS011;20346;52.702;16.886;2022-07-29T04:57:59;10.50;;;2.70;;
34072;SDS011;20346;52.702;16.886;2022-07-29T05:00:25;4.28;;;2.50;;
34072;SDS011;20346;52.702;16.886;2022-07-29T05:02:51;4.40;;;2.50;;
34072;SDS011;20346;52.702;16.886;2022-07-29T05:05:17;10.47;;;2.70;;
34072;SDS011;20346;52.702;16.886;2022-07-29T05:07:43;8.98;;;3.20;;
34072;SDS011;20346;52.702;16.886;2022-07-29T05:10:09;3.87;;;2.57;;
34072;SDS011;20346;52.702;16.886;2022-07-29T05:12:37;6.30;;;2.25;;
34072;SDS011;20346;52.702;16.886;2022-07-29T05:15:03;4.70;;;2.83;;
34072;SDS011;20346;52.702;16.886;2022-07-29T05:17:30;3.98;;;2.58;;
34072;SDS011;20346;52.702;16.886;2022-07-29T05:19:56;5.15;;;2.67;;
34072;SDS011;20346;52.702;16.886;2022-07-29T05:22:22;4.67;;;2.53;;
34072;SDS011;20346;52.702;16.886;2022-07-29T05:24:48;6.60;;;2.27;;
34072;SDS011;20346;52.702;16.886;2022-07-29T05:27:14;8.03;;;2.40;;
34072;SDS011;20346;52.702;16.886;2022-07-29T05:29:40;7.65;;;3.02;;
34072;SDS011;20346;52.702;16.886;2022-07-29T05:32:06;9.00;;;2.70;;
34072;SDS011;20346;52.702;16.886;2022-07-29T05:34:32;12.17;;;2.53;;
34072;SDS011;20346;52.702;16.886;2022-07-29T05:36:58;4.50;;;2.17;;
34072;SDS011;20346;52.702;16.886;2022-07-29T05:39:24;10.30;;;2.30;;
34072;SDS011;20346;52.702;16.886;2022-07-29T05:41:51;4.33;;;2.37;;
34072;SDS011;20346;52.702;16.886;2022-07-29T05:44:17;5.43;;;2.17;;
34072;SDS011;20346;52.702;16.886;2022-07-29T05:46:43;5.83;;;1.80;;
34072;SDS011;20346;52.702;16.886;2022-07-29T05:49:09;5.13;;;2.00;;
34072;SDS011;20346;52.702;16.886;2022-07-29T05:51:34;12.63;;;2.10;;
34072;SDS011;20346;52.702;16.886;2022-07-29T05:54:01;3.35;;;1.87;;
34072;SDS011;20346;52.702;16.886;2022-07-29T05:56:28;4.80;;;1.85;;
34072;SDS011;20346;52.702;16.886;2022-07-29T06:01:20;3.37;;;1.70;;
34072;SDS011;20346;52.702;16.886;2022-07-29T06:03:47;6.15;;;1.90;;
34072;SDS011;20346;52.702;16.886;2022-07-29T06:06:13;6.75;;;1.80;;
34072;SDS011;20346;52.702;16.886;2022-07-29T06:08:39;4.23;;;2.00;;
34072;SDS011;20346;52.702;16.886;2022-07-29T06:11:05;3.40;;;1.53;;
34072;SDS011;20346;52.702;16.886;2022-07-29T06:13:33;3.30;;;1.72;;
34072;SDS011;20346;52.702;16.886;2022-07-29T06:15:59;4.37;;;1.55;;
34072;SDS011;20346;52.702;16.886;2022-07-29T06:18:26;3.97;;;1.53;;
34072;SDS011;20346;52.702;16.886;2022-07-29T06:20:52;10.35;;;1.77;;
34072;SDS011;20346;52.702;16.886;2022-07-29T06:23:19;4.53;;;1.70;;
34072;SDS011;20346;52.702;16.886;2022-07-29T06:25:46;11.90;;;1.75;;
34072;SDS011;20346;52.702;16.886;2022-07-29T06:28:12;6.75;;;2.25;;
34072;SDS011;20346;52.702;16.886;2022-07-29T06:30:38;4.27;;;1.57;;
34072;SDS011;20346;52.702;16.886;2022-07-29T06:33:05;5.15;;;1.90;;
34072;SDS011;20346;52.702;16.886;2022-07-29T06:35:34;4.15;;;1.50;;
34072;SDS011;20346;52.702;16.886;2022-07-29T06:38:02;5.20;;;1.82;;
34072;SDS011;20346;52.702;16.886;2022-07-29T06:40:29;3.05;;;1.65;;
34072;SDS011;20346;52.702;16.886;2022-07-29T06:43:13;4.60;;;2.00;;
34072;SDS011;20346;52.702;16.886;2022-07-29T06:45:39;4.62;;;1.95;;
34072;SDS011;20346;52.702;16.886;2022-07-29T06:48:06;4.33;;;1.72;;
34072;SDS011;20346;52.702;16.886;2022-07-29T06:50:32;4.62;;;1.62;;
34072;SDS011;20346;52.702;16.886;2022-07-29T06:52:59;4.72;;;1.95;;
34072;SDS011;20346;52.702;16.886;2022-07-29T06:55:34;5.65;;;1.67;;
34072;SDS011;20346;52.702;16.886;2022-07-29T06:58:02;7.28;;;2.52;;
34072;SDS011;20346;52.702;16.886;2022-07-29T07:00:28;9.53;;;1.95;;
34072;SDS011;20346;52.702;16.886;2022-07-29T07:02:54;5.90;;;1.82;;
34072;SDS011;20346;52.702;16.886;2022-07-29T07:05:20;6.10;;;1.82;;
34072;SDS011;20346;52.702;16.886;2022-07-29T07:07:46;3.58;;;1.62;;
34072;SDS011;20346;52.702;16.886;2022-07-29T07:10:13;3.10;;;1.60;;
34072;SDS011;20346;52.702;16.886;2022-07-29T07:12:39;5.50;;;2.15;;
34072;SDS011;20346;52.702;16.886;2022-07-29T07:15:05;5.27;;;1.80;;
34072;SDS011;20346;52.702;16.886;2022-07-29T07:19:58;7.58;;;1.77;;
34072;SDS011;20346;52.702;16.886;2022-07-29T07:22:24;3.08;;;1.50;;
34072;SDS011;20346;52.702;16.886;2022-07-29T07:24:50;3.60;;;1.50;;
34072;SDS011;20346;52.702;16.886;2022-07-29T07:27:16;5.33;;;1.60;;
34072;SDS011;20346;52.702;16.886;2022-07-29T07:29:42;5.95;;;1.47;;
34072;SDS011;20346;52.702;16.886;2022-07-29T07:32:08;3.93;;;2.03;;
34072;SDS011;20346;52.702;16.886;2022-07-29T07:34:34;4.70;;;1.77;;
34072;SDS011;20346;52.702;16.886;2022-07-29T07:37:00;5.83;;;1.77;;
34072;SDS011;20346;52.702;16.886;2022-07-29T07:39:26;6.20;;;1.70;;
34072;SDS011;20346;52.702;16.886;2022-07-29T07:41:52;6.00;;;1.50;;
34072;SDS011;20346;52.702;16.886;2022-07-29T07:44:18;3.95;;;2.10;;
34072;SDS011;20346;52.702;16.886;2022-07-29T07:46:44;8.45;;;1.65;;
34072;SDS011;20346;52.702;16.886;2022-07-29T07:49:10;5.37;;;1.55;;
34072;SDS011;20346;52.702;16.886;2022-07-29T07:51:37;4.40;;;1.50;;
34072;SDS011;20346;52.702;16.886;2022-07-29T07:54:03;3.72;;;1.37;;
34072;SDS011;20346;52.702;16.886;2022-07-29T07:56:30;2.67;;;1.40;;
34072;SDS011;20346;52.702;16.886;2022-07-29T07:58:56;3.27;;;1.40;;
34072;SDS011;20346;52.702;16.886;2022-07-29T08:03:49;2.40;;;1.42;;
34072;SDS011;20346;52.702;16.886;2022-07-29T08:08:41;5.42;;;2.10;;
34072;SDS011;20346;52.702;16.886;2022-07-29T08:11:07;26.90;;;2.83;;
34072;SDS011;20346;52.702;16.886;2022-07-29T08:13:33;4.00;;;1.50;;
34072;SDS011;20346;52.702;16.886;2022-07-29T08:15:59;3.93;;;1.43;;
34072;SDS011;20346;52.702;16.886;2022-07-29T08:18:27;4.62;;;1.42;;
34072;SDS011;20346;52.702;16.886;2022-07-29T08:20:56;2.35;;;1.15;;
34072;SDS011;20346;52.702;16.886;2022-07-29T08:23:23;4.15;;;1.27;;
34072;SDS011;20346;52.702;16.886;2022-07-29T08:25:51;4.22;;;1.77;;
34072;SDS011;20346;52.702;16.886;2022-07-29T08:28:17;4.53;;;1.20;;
34072;SDS011;20346;52.702;16.886;2022-07-29T08:30:44;4.05;;;1.27;;
34072;SDS011;20346;52.702;16.886;2022-07-29T08:33:10;2.33;;;1.10;;
34072;SDS011;20346;52.702;16.886;2022-07-29T08:35:36;2.60;;;1.40;;
34072;SDS011;20346;52.702;16.886;2022-07-29T08:38:04;3.80;;;1.15;;
34072;SDS011;20346;52.702;16.886;2022-07-29T08:40:30;7.08;;;1.50;;
34072;SDS011;20346;52.702;16.886;2022-07-29T08:42:57;3.85;;;1.27;;
34072;SDS011;20346;52.702;16.886;2022-07-29T08:45:23;5.22;;;1.45;;
34072;SDS011;20346;52.702;16.886;2022-07-29T08:47:51;4.12;;;1.37;;
34072;SDS011;20346;52.702;16.886;2022-07-29T08:50:18;3.42;;;1.52;;
34072;SDS011;20346;52.702;16.886;2022-07-29T08:52:45;8.30;;;1.50;;
34072;SDS011;20346;52.702;16.886;2022-07-29T08:55:12;3.25;;;1.22;;
34072;SDS011;20346;52.702;16.886;2022-07-29T08:57:40;4.08;;;1.40;;
34072;SDS011;20346;52.702;16.886;2022-07-29T09:00:07;2.98;;;1.55;;
34072;SDS011;20346;52.702;16.886;2022-07-29T09:02:39;2.77;;;1.70;;
34072;SDS011;20346;52.702;16.886;2022-07-29T09:05:10;2.45;;;1.25;;
34072;SDS011;20346;52.702;16.886;2022-07-29T09:07:36;6.97;;;1.10;;
34072;SDS011;20346;52.702;16.886;2022-07-29T09:10:05;3.45;;;1.10;;
34072;SDS011;20346;52.702;16.886;2022-07-29T09:12:32;4.40;;;1.50;;
34072;SDS011;20346;52.702;16.886;2022-07-29T09:14:58;8.85;;;1.95;;
34072;SDS011;20346;52.702;16.886;2022-07-29T09:17:43;1.73;;;1.07;;
34072;SDS011;20346;52.702;16.886;2022-07-29T09:20:10;7.45;;;1.32;;
34072;SDS011;20346;52.702;16.886;2022-07-29T09:22:40;4.42;;;1.40;;
34072;SDS011;20346;52.702;16.886;2022-07-29T09:25:07;6.45;;;1.20;;
34072;SDS011;20346;52.702;16.886;2022-07-29T09:27:34;3.80;;;1.10;;
34072;SDS011;20346;52.702;16.886;2022-07-29T09:30:10;4.45;;;1.30;;
34072;SDS011;20346;52.702;16.886;2022-07-29T09:32:55;4.12;;;0.98;;
34072;SDS011;20346;52.702;16.886;2022-07-29T09:35:26;3.12;;;1.10;;
34072;SDS011;20346;52.702;16.886;2022-07-29T09:37:55;1.90;;;1.10;;
34072;SDS011;20346;52.702;16.886;2022-07-29T09:40:25;5.65;;;1.05;;
34072;SDS011;20346;52.702;16.886;2022-07-29T09:42:53;2.52;;;1.10;;
34072;SDS011;20346;52.702;16.886;2022-07-29T09:45:29;1.35;;;0.85;;
34072;SDS011;20346;52.702;16.886;2022-07-29T09:47:58;4.70;;;1.30;;
34072;SDS011;20346;52.702;16.886;2022-07-29T09:50:36;1.07;;;0.90;;
34072;SDS011;20346;52.702;16.886;2022-07-29T09:53:05;4.12;;;1.30;;
34072;SDS011;20346;52.702;16.886;2022-07-29T09:55:31;5.67;;;1.22;;
34072;SDS011;20346;52.702;16.886;2022-07-29T09:58:20;2.27;;;1.10;;
34072;SDS011;20346;52.702;16.886;2022-07-29T10:00:45;3.22;;;1.05;;
34072;SDS011;20346;52.702;16.886;2022-07-29T10:03:13;2.95;;;1.17;;
34072;SDS011;20346;52.702;16.886;2022-07-29T10:05:41;7.55;;;1.20;;
34072;SDS011;20346;52.702;16.886;2022-07-29T10:08:08;5.12;;;1.10;;
34072;SDS011;20346;52.702;16.886;2022-07-29T10:10:41;1.32;;;1.00;;
34072;SDS011;20346;52.702;16.886;2022-07-29T10:13:12;3.30;;;1.10;;
34072;SDS011;20346;52.702;16.886;2022-07-29T10:15:40;5.62;;;1.12;;
34072;SDS011;20346;52.702;16.886;2022-07-29T10:18:10;3.47;;;1.10;;
34072;SDS011;20346;52.702;16.886;2022-07-29T10:20:38;3.62;;;1.52;;
34072;SDS011;20346;52.702;16.886;2022-07-29T10:25:31;9.98;;;1.20;;
34072;SDS011;20346;52.702;16.886;2022-07-29T10:28:00;5.45;;;1.12;;
34072;SDS011;20346;52.702;16.886;2022-07-29T10:30:27;3.98;;;1.27;;
34072;SDS011;20346;52.702;16.886;2022-07-29T10:39:14;2.90;;;1.02;;
34072;SDS011;20346;52.702;16.886;2022-07-29T10:42:13;3.70;;;1.27;;
34072;SDS011;20346;52.702;16.886;2022-07-29T10:44:48;3.40;;;1.00;;
34072;SDS011;20346;52.702;16.886;2022-07-29T10:47:24;3.10;;;1.10;;
34072;SDS011;20346;52.702;16.886;2022-07-29T10:49:58;5.09;;;1.32;;
34072;SDS011;20346;52.702;16.886;2022-07-29T10:53:10;2.06;;;0.92;;
34072;SDS011;20346;52.702;16.886;2022-07-29T10:55:36;2.47;;;1.10;;
34072;SDS011;20346;52.702;16.886;2022-07-29T10:58:14;2.92;;;1.27;;
34072;SDS011;20346;52.702;16.886;2022-07-29T11:00:46;7.00;;;1.50;;
34072;SDS011;20346;52.702;16.886;2022-07-29T11:03:52;6.85;;;1.27;;
34072;SDS011;20346;52.702;16.886;2022-07-29T11:06:10;2.65;;;1.17;;
34072;SDS011;20346;52.702;16.886;2022-07-29T11:08:36;7.15;;;1.42;;
34072;SDS011;20346;52.702;16.886;2022-07-29T11:13:56;3.85;;;1.17;;
34072;SDS011;20346;52.702;16.886;2022-07-29T11:16:22;5.55;;;0.90;;
34072;SDS011;20346;52.702;16.886;2022-07-29T11:21:44;2.80;;;1.00;;
34072;SDS011;20346;52.702;16.886;2022-07-29T11:24:13;5.20;;;1.40;;
34072;SDS011;20346;52.702;16.886;2022-07-29T11:27:13;5.20;;;1.22;;
34072;SDS011;20346;52.702;16.886;2022-07-29T11:29:50;2.58;;;1.00;;
34072;SDS011;20346;52.702;16.886;2022-07-29T11:32:19;2.65;;;1.30;;
34072;SDS011;20346;52.702;16.886;2022-07-29T11:34:49;2.60;;;1.25;;
34072;SDS011;20346;52.702;16.886;2022-07-29T11:37:36;2.42;;;1.10;;
34072;SDS011;20346;52.702;16.886;2022-07-29T11:45:09;5.67;;;1.60;;
34072;SDS011;20346;52.702;16.886;2022-07-29T11:50:39;5.12;;;1.10;;
34072;SDS011;20346;52.702;16.886;2022-07-29T11:52:59;2.62;;;1.20;;
34072;SDS011;20346;52.702;16.886;2022-07-29T11:55:28;2.40;;;0.93;;
34072;SDS011;20346;52.702;16.886;2022-07-29T11:57:57;4.58;;;1.50;;
34072;SDS011;20346;52.702;16.886;2022-07-29T12:03:00;2.12;;;1.20;;
34072;SDS011;20346;52.702;16.886;2022-07-29T12:05:35;6.25;;;1.30;;
34072;SDS011;20346;52.702;16.886;2022-07-29T12:08:14;4.97;;;1.10;;
34072;SDS011;20346;52.702;16.886;2022-07-29T12:10:47;2.80;;;1.02;;
34072;SDS011;20346;52.702;16.886;2022-07-29T12:13:16;5.72;;;1.25;;
34072;SDS011;20346;52.702;16.886;2022-07-29T12:15:56;3.50;;;1.25;;
34072;SDS011;20346;52.702;16.886;2022-07-29T12:18:23;2.17;;;0.90;;
34072;SDS011;20346;52.702;16.886;2022-07-29T12:21:01;8.00;;;1.10;;
34072;SDS011;20346;52.702;16.886;2022-07-29T12:23:27;2.12;;;1.05;;
34072;SDS011;20346;52.702;16.886;2022-07-29T12:25:54;4.42;;;1.05;;
34072;SDS011;20346;52.702;16.886;2022-07-29T12:28:20;4.20;;;1.40;;
34072;SDS011;20346;52.702;16.886;2022-07-29T12:30:48;3.55;;;1.12;;
34072;SDS011;20346;52.702;16.886;2022-07-29T12:33:19;5.33;;;1.67;;
34072;SDS011;20346;52.702;16.886;2022-07-29T12:35:56;2.92;;;1.25;;
34072;SDS011;20346;52.702;16.886;2022-07-29T12:38:25;2.72;;;1.20;;
34072;SDS011;20346;52.702;16.886;2022-07-29T12:40:52;4.05;;;1.10;;
34072;SDS011;20346;52.702;16.886;2022-07-29T12:43:20;5.42;;;1.32;;
34072;SDS011;20346;52.702;16.886;2022-07-29T12:45:53;1.77;;;1.07;;
34072;SDS011;20346;52.702;16.886;2022-07-29T12:48:42;5.50;;;1.00;;
34072;SDS011;20346;52.702;16.886;2022-07-29T12:51:08;4.20;;;1.23;;
34072;SDS011;20346;52.702;16.886;2022-07-29T12:53:37;1.42;;;1.00;;
34072;SDS011;20346;52.702;16.886;2022-07-29T13:07:13;2.20;;;1.00;;
34072;SDS011;20346;52.702;16.886;2022-07-29T13:17:08;2.15;;;1.02;;
34072;SDS011;20346;52.702;16.886;2022-07-29T13:23:14;5.37;;;1.30;;
34072;SDS011;20346;52.702;16.886;2022-07-29T13:25:41;2.25;;;1.20;;
34072;SDS011;20346;52.702;16.886;2022-07-29T13:28:07;1.47;;;0.95;;
34072;SDS011;20346;52.702;16.886;2022-07-29T13:30:34;3.42;;;1.02;;
34072;SDS011;20346;52.702;16.886;2022-07-29T13:33:01;2.67;;;1.15;;
34072;SDS011;20346;52.702;16.886;2022-07-29T13:35:27;1.90;;;1.20;;
34072;SDS011;20346;52.702;16.886;2022-07-29T13:37:54;4.75;;;1.40;;
34072;SDS011;20346;52.702;16.886;2022-07-29T13:40:21;3.00;;;1.47;;
34072;SDS011;20346;52.702;16.886;2022-07-29T13:42:47;6.15;;;1.20;;
34072;SDS011;20346;52.702;16.886;2022-07-29T13:45:14;3.85;;;1.17;;
34072;SDS011;20346;52.702;16.886;2022-07-29T13:47:40;8.68;;;1.40;;
34072;SDS011;20346;52.702;16.886;2022-07-29T13:50:07;3.72;;;1.30;;
34072;SDS011;20346;52.702;16.886;2022-07-29T13:52:35;2.47;;;1.35;;
34072;SDS011;20346;52.702;16.886;2022-07-29T13:55:03;2.35;;;1.10;;
34072;SDS011;20346;52.702;16.886;2022-07-29T13:57:31;3.90;;;1.17;;
34072;SDS011;20346;52.702;16.886;2022-07-29T13:59:57;2.40;;;1.50;;
34072;SDS011;20346;52.702;16.886;2022-07-29T14:02:24;1.75;;;0.90;;
34072;SDS011;20346;52.702;16.886;2022-07-29T14:04:51;1.20;;;0.98;;
34072;SDS011;20346;52.702;16.886;2022-07-29T14:07:18;2.27;;;1.42;;
34072;SDS011;20346;52.702;16.886;2022-07-29T14:09:45;5.10;;;1.20;;
34072;SDS011;20346;52.702;16.886;2022-07-29T14:12:11;1.65;;;1.20;;
34072;SDS011;20346;52.702;16.886;2022-07-29T14:14:38;9.60;;;1.30;;
34072;SDS011;20346;52.702;16.886;2022-07-29T14:17:04;2.37;;;1.00;;
34072;SDS011;20346;52.702;16.886;2022-07-29T14:19:34;4.40;;;1.20;;
34072;SDS011;20346;52.702;16.886;2022-07-29T14:22:03;4.65;;;1.20;;
34072;SDS011;20346;52.702;16.886;2022-07-29T14:24:31;1.95;;;1.55;;
34072;SDS011;20346;52.702;16.886;2022-07-29T14:26:57;2.62;;;1.40;;
34072;SDS011;20346;52.702;16.886;2022-07-29T14:29:24;6.03;;;1.10;;
34072;SDS011;20346;52.702;16.886;2022-07-29T14:34:17;1.57;;;1.10;;
34072;SDS011;20346;52.702;16.886;2022-07-29T14:36:44;2.47;;;0.98;;
34072;SDS011;20346;52.702;16.886;2022-07-29T14:39:10;5.92;;;1.30;;
34072;SDS011;20346;52.702;16.886;2022-07-29T14:44:03;4.85;;;1.10;;
34072;SDS011;20346;52.702;16.886;2022-07-29T14:46:30;2.85;;;1.20;;
34072;SDS011;20346;52.702;16.886;2022-07-29T14:51:22;1.75;;;1.02;;
34072;SDS011;20346;52.702;16.886;2022-07-29T14:53:49;5.05;;;1.40;;
34072;SDS011;20346;52.702;16.886;2022-07-29T14:56:16;3.35;;;1.27;;
34072;SDS011;20346;52.702;16.886;2022-07-29T14:58:42;2.83;;;1.35;;
34072;SDS011;20346;52.702;16.886;2022-07-29T15:01:08;3.85;;;1.35;;
34072;SDS011;20346;52.702;16.886;2022-07-29T15:03:35;9.38;;;1.30;;
34072;SDS011;20346;52.702;16.886;2022-07-29T15:06:01;3.47;;;1.05;;
34072;SDS011;20346;52.702;16.886;2022-07-29T15:08:28;5.85;;;1.70;;
34072;SDS011;20346;52.702;16.886;2022-07-29T15:10:58;7.22;;;1.62;;
34072;SDS011;20346;52.702;16.886;2022-07-29T15:13:25;2.77;;;1.27;;
34072;SDS011;20346;52.702;16.886;2022-07-29T15:15:52;3.15;;;1.50;;
34072;SDS011;20346;52.702;16.886;2022-07-29T15:18:18;4.10;;;1.40;;
34072;SDS011;20346;52.702;16.886;2022-07-29T15:20:45;5.40;;;1.20;;
34072;SDS011;20346;52.702;16.886;2022-07-29T15:23:12;3.40;;;1.47;;
34072;SDS011;20346;52.702;16.886;2022-07-29T15:25:38;9.73;;;1.67;;
34072;SDS011;20346;52.702;16.886;2022-07-29T15:28:05;4.85;;;1.30;;
34072;SDS011;20346;52.702;16.886;2022-07-29T15:30:35;2.45;;;1.17;;
34072;SDS011;20346;52.702;16.886;2022-07-29T15:33:04;8.08;;;1.55;;
34072;SDS011;20346;52.702;16.886;2022-07-29T15:35:30;1.40;;;1.17;;
34072;SDS011;20346;52.702;16.886;2022-07-29T15:37:56;10.48;;;1.32;;
34072;SDS011;20346;52.702;16.886;2022-07-29T15:40:23;2.08;;;1.40;;
34072;SDS011;20346;52.702;16.886;2022-07-29T15:42:49;3.33;;;1.15;;
34072;SDS011;20346;52.702;16.886;2022-07-29T15:47:42;5.25;;;1.77;;
34072;SDS011;20346;52.702;16.886;2022-07-29T15:50:09;1.70;;;1.50;;
34072;SDS011;20346;52.702;16.886;2022-07-29T15:52:37;3.67;;;1.42;;
34072;SDS011;20346;52.702;16.886;2022-07-29T15:55:05;5.30;;;1.30;;
34072;SDS011;20346;52.702;16.886;2022-07-29T15:57:33;11.20;;;1.30;;
34072;SDS011;20346;52.702;16.886;2022-07-29T15:59:59;10.20;;;2.77;;
34072;SDS011;20346;52.702;16.886;2022-07-29T16:02:26;10.40;;;2.87;;
34072;SDS011;20346;52.702;16.886;2022-07-29T16:04:52;6.12;;;1.52;;
34072;SDS011;20346;52.702;16.886;2022-07-29T16:07:19;3.30;;;1.20;;
34072;SDS011;20346;52.702;16.886;2022-07-29T16:09:45;4.00;;;1.40;;
34072;SDS011;20346;52.702;16.886;2022-07-29T16:12:12;4.65;;;1.62;;
34072;SDS011;20346;52.702;16.886;2022-07-29T16:14:38;3.45;;;1.37;;
34072;SDS011;20346;52.702;16.886;2022-07-29T16:17:06;4.70;;;1.17;;
34072;SDS011;20346;52.702;16.886;2022-07-29T16:19:32;2.77;;;1.22;;
34072;SDS011;20346;52.702;16.886;2022-07-29T16:21:59;1.60;;;1.00;;